Time;durP1;ratioP1;P1;durP2;ratioP2;P2;SDS_P1;SDS_P2;PMS_P1;PMS_P2;Temp;Humidity;BMP_temperature;BMP_pressure;BME280_temperature;BME280_humidity;BME280_pressure;Samples;Min_cycle;Max_cycle;Signal;HPM_P1;HPM_P2
2023/05/30 00:00:28;;;;;;;7.63;7.03;;;;;;;20.29;40.86;102843.13;5055647;28;20068;-69
2023/05/30 00:02:54;;;;;;;7.43;5.77;;;;;;;20.25;40.50;102841.44;5056069;28;20029;-69
2023/05/30 00:05:19;;;;;;;9.43;8.43;;;;;;;20.09;41.42;102851.50;5050872;28;20024;-69
2023/05/30 00:07:45;;;;;;;9.17;8.40;;;;;;;19.67;42.97;102844.19;5051148;28;20055;-68
2023/05/30 00:10:10;;;;;;;4.97;3.83;;;;;;;20.53;40.71;102840.94;5051181;28;20021;-70
2023/05/30 00:12:36;;;;;;;5.07;4.00;;;;;;;20.51;40.69;102844.47;5052400;28;20488;-69
2023/05/30 00:15:03;;;;;;;5.70;4.00;;;;;;;20.60;40.96;102842.53;5058170;28;20055;-69
2023/05/30 00:17:28;;;;;;;10.33;4.53;;;;;;;21.10;39.74;102845.94;5057976;28;20477;-68
2023/05/30 00:19:54;;;;;;;5.07;3.80;;;;;;;21.17;39.31;102842.22;5051986;28;20058;-68
2023/05/30 00:22:19;;;;;;;5.80;4.57;;;;;;;20.58;40.50;102839.03;5051888;28;20025;-68
2023/05/30 00:24:45;;;;;;;6.13;5.63;;;;;;;21.10;39.89;102848.59;5050360;28;20025;-68
2023/05/30 00:27:13;;;;;;;4.40;4.00;;;;;;;21.26;39.38;102845.56;5050897;28;20043;-68
2023/05/30 00:29:38;;;;;;;6.33;4.57;;;;;;;21.00;40.17;102852.34;5049014;28;20061;-69
2023/05/30 00:32:04;;;;;;;6.47;5.67;;;;;;;20.95;40.42;102848.91;5060995;28;20489;-68
2023/05/30 00:34:30;;;;;;;4.70;4.40;;;;;;;21.56;38.39;102859.09;5072071;28;20033;-68
2023/05/30 00:36:55;;;;;;;5.40;5.00;;;;;;;21.39;39.04;102860.34;5069670;28;20063;-70
2023/05/30 00:39:20;;;;;;;6.17;4.40;;;;;;;21.04;39.83;102864.66;5071243;28;20025;-68
2023/05/30 00:41:46;;;;;;;6.13;4.20;;;;;;;21.25;39.75;102851.78;5069742;28;20029;-68
2023/05/30 00:44:11;;;;;;;4.40;4.10;;;;;;;21.46;39.22;102851.28;5064027;28;20435;-69
2023/05/30 00:46:37;;;;;;;4.50;3.57;;;;;;;21.64;38.74;102852.66;5050475;28;20040;-68
2023/05/30 00:49:03;;;;;;;6.77;5.10;;;;;;;21.57;38.50;102863.47;5049893;28;20384;-69
2023/05/30 00:51:30;;;;;;;8.03;4.63;;;;;;;21.92;38.21;102859.06;5063344;28;20119;-69
2023/05/30 00:53:56;;;;;;;4.97;3.10;;;;;;;21.76;37.79;102854.16;5071050;28;20030;-68
2023/05/30 00:56:23;;;;;;;4.20;3.13;;;;;;;21.18;39.25;102851.06;5068355;28;20412;-69
2023/05/30 00:58:52;;;;;;;5.87;3.90;;;;;;;20.96;39.13;102864.81;5068371;28;20185;-69
2023/05/30 01:01:19;;;;;;;3.63;3.33;;;;;;;20.78;39.40;102868.75;5059020;28;20090;-68
2023/05/30 01:03:47;;;;;;;4.77;4.03;;;;;;;21.01;39.58;102868.25;5062214;28;20044;-68
2023/05/30 01:06:13;;;;;;;5.50;4.20;;;;;;;21.74;38.55;102861.28;5070040;28;20078;-68
2023/05/30 01:08:38;;;;;;;5.03;4.00;;;;;;;20.76;39.27;102870.56;5070055;28;20036;-68
2023/05/30 01:11:15;;;;;;;6.73;4.33;;;;;;;20.61;39.97;102870.88;5054684;28;20068;-68
2023/05/30 01:13:57;;;;;;;6.27;4.73;;;;;;;21.27;38.92;102865.94;5052554;28;20404;-68
2023/05/30 01:16:28;;;;;;;4.68;4.03;;;;;;;20.78;39.79;102863.44;5069187;28;20033;-69
2023/05/30 01:19:06;;;;;;;4.63;4.30;;;;;;;20.21;39.83;102868.94;5068355;28;20451;-69
2023/05/30 01:21:33;;;;;;;4.33;4.13;;;;;;;19.81;40.86;102868.75;5071091;28;20028;-69
2023/05/30 01:24:19;;;;;;;5.37;4.33;;;;;;;20.81;39.45;102870.47;5070553;28;20024;-68
2023/05/30 01:27:13;;;;;;;4.87;4.47;;;;;;;20.91;39.16;102863.16;5048597;28;20032;-69
2023/05/30 01:29:44;;;;;;;6.03;4.83;;;;;;;20.78;39.11;102863.44;5065549;28;20062;-68
2023/05/30 01:32:09;;;;;;;4.70;4.33;;;;;;;21.59;37.90;102851.03;5068950;28;20155;-69
2023/05/30 01:34:35;;;;;;;4.80;4.57;;;;;;;21.40;37.69;102853.22;5070733;28;20020;-69
2023/05/30 01:37:01;;;;;;;4.80;4.30;;;;;;;21.29;38.53;102856.13;5054139;28;20444;-69
2023/05/30 01:39:26;;;;;;;4.73;4.43;;;;;;;20.97;38.20;102852.44;5049574;28;20070;-68
2023/05/30 01:42:04;;;;;;;5.80;5.23;;;;;;;20.62;39.28;102859.31;5067182;28;20452;-69
2023/05/30 01:45:04;;;;;;;5.60;4.80;;;;;;;20.56;39.84;102865.63;5058911;28;20025;-69
2023/05/30 01:47:43;;;;;;;7.47;4.23;;;;;;;21.01;38.75;102859.41;5037848;28;20075;-68
2023/05/30 01:50:15;;;;;;;5.27;4.80;;;;;;;20.51;39.52;102865.72;5049394;28;20029;-68
2023/05/30 01:52:46;;;;;;;5.40;4.88;;;;;;;20.76;39.46;102869.69;5062589;28;20108;-68
2023/05/30 01:55:13;;;;;;;10.17;4.77;;;;;;;20.63;39.19;102874.34;5065926;28;20040;-67
2023/05/30 01:57:47;;;;;;;5.80;5.17;;;;;;;20.82;39.24;102869.56;5058300;28;20047;-69
2023/05/30 02:00:16;;;;;;;6.73;4.57;;;;;;;21.06;38.58;102867.28;5068187;28;20056;-69
2023/05/30 02:02:43;;;;;;;4.73;4.43;;;;;;;20.13;40.43;102869.97;5068924;28;20504;-68
2023/05/30 02:05:09;;;;;;;4.27;4.03;;;;;;;20.61;39.21;102873.53;5068067;28;20032;-69
2023/05/30 02:07:34;;;;;;;4.77;4.33;;;;;;;20.89;38.90;102865.00;5055328;28;20048;-69
2023/05/30 02:09:59;;;;;;;5.00;4.70;;;;;;;20.53;39.92;102873.66;5047894;28;20282;-69
2023/05/30 02:12:25;;;;;;;5.57;4.73;;;;;;;20.70;39.29;102878.66;5063472;28;20040;-68
2023/05/30 02:14:52;;;;;;;4.73;4.43;;;;;;;20.69;39.01;102879.59;5068638;28;20366;-68
2023/05/30 02:17:21;;;;;;;6.87;4.23;;;;;;;20.64;39.45;102876.09;5056592;28;20374;-68
2023/05/30 02:19:47;;;;;;;4.63;4.13;;;;;;;20.53;40.21;102888.75;5048336;28;20441;-69
2023/05/30 02:22:13;;;;;;;7.77;4.40;;;;;;;20.77;39.72;102888.28;5047848;28;20385;-69
2023/05/30 02:24:38;;;;;;;7.10;4.23;;;;;;;20.44;39.97;102885.34;5050155;28;20035;-69
2023/05/30 02:27:04;;;;;;;5.07;4.33;;;;;;;20.71;39.80;102883.06;5047100;28;20048;-69
2023/05/30 02:29:29;;;;;;;5.00;4.60;;;;;;;20.87;38.68;102888.97;5049052;28;20039;-69
2023/05/30 02:31:54;;;;;;;5.00;4.60;;;;;;;20.82;39.08;102890.84;5047389;28;20032;-69
2023/05/30 02:34:20;;;;;;;8.77;5.77;;;;;;;21.23;38.60;102888.19;5048221;28;20056;-69
2023/05/30 02:36:45;;;;;;;5.33;5.03;;;;;;;20.80;39.09;102885.56;5047343;28;20105;-69
2023/05/30 02:39:11;;;;;;;4.83;4.43;;;;;;;20.55;39.48;102884.25;5049933;28;20025;-69
2023/05/30 02:41:37;;;;;;;5.67;5.30;;;;;;;21.17;38.76;102875.88;5058049;28;20025;-68
2023/05/30 02:44:04;;;;;;;12.37;5.27;;;;;;;21.48;38.44;102880.50;5047179;28;20392;-69
2023/05/30 02:46:29;;;;;;;5.80;5.23;;;;;;;21.53;38.31;102883.97;5048381;28;20253;-69
2023/05/30 02:48:55;;;;;;;6.40;5.67;;;;;;;20.65;40.42;102883.19;5048081;28;20033;-69
2023/05/30 02:51:20;;;;;;;6.30;5.77;;;;;;;21.42;38.39;102883.31;5047978;28;20027;-69
2023/05/30 02:53:46;;;;;;;8.23;4.97;;;;;;;19.54;41.02;102885.09;5063710;28;20388;-68
2023/05/30 02:56:11;;;;;;;7.83;4.63;;;;;;;20.15;41.39;102886.78;5047222;28;20029;-69
2023/05/30 02:58:36;;;;;;;5.30;4.30;;;;;;;21.13;39.13;102880.41;5048111;28;20053;-68
2023/05/30 03:01:02;;;;;;;4.57;4.37;;;;;;;20.63;39.25;102882.31;5047710;28;20025;-69
2023/05/30 03:03:28;;;;;;;4.80;4.30;;;;;;;20.70;39.47;102886.63;5060714;28;20075;-68
2023/05/30 03:05:57;;;;;;;5.47;4.90;;;;;;;21.63;37.85;102874.00;5049016;28;20820;-69
2023/05/30 03:08:22;;;;;;;6.83;4.70;;;;;;;21.30;38.62;102881.81;5048420;28;20556;-69
2023/05/30 03:10:48;;;;;;;6.00;4.77;;;;;;;21.08;38.91;102887.63;5047002;28;20036;-69
2023/05/30 03:13:13;;;;;;;7.33;4.30;;;;;;;21.40;38.28;102878.03;5049347;28;20405;-69
2023/05/30 03:15:39;;;;;;;5.17;4.27;;;;;;;21.00;38.87;102871.81;5048166;28;20029;-69
2023/05/30 03:18:05;;;;;;;6.17;3.87;;;;;;;21.31;39.33;102872.94;5060759;28;20037;-70
2023/05/30 03:20:31;;;;;;;5.97;4.03;;;;;;;21.59;38.68;102869.66;5068279;28;20024;-70
2023/05/30 03:22:56;;;;;;;5.33;4.57;;;;;;;21.34;39.21;102868.41;5066260;28;20032;-69
2023/05/30 03:25:22;;;;;;;5.10;3.80;;;;;;;21.43;38.99;102871.75;5063614;28;20032;-70
2023/05/30 03:27:50;;;;;;;5.00;4.10;;;;;;;21.34;39.02;102872.88;5072942;28;20028;-69
2023/05/30 03:30:17;;;;;;;9.35;4.68;;;;;;;21.64;38.44;102865.09;5073336;28;20024;-69
2023/05/30 03:32:43;;;;;;;8.33;4.07;;;;;;;21.59;38.86;102878.50;5068723;28;20414;-69
2023/05/30 03:35:08;;;;;;;6.50;4.70;;;;;;;21.82;38.71;102875.28;5071505;28;20016;-69
2023/05/30 03:37:34;;;;;;;6.20;5.65;;;;;;;21.49;39.12;102877.81;5070793;28;20078;-69
2023/05/30 03:39:59;;;;;;;4.33;4.03;;;;;;;21.51;38.83;102884.00;5069451;28;20032;-69
2023/05/30 03:42:25;;;;;;;5.33;4.40;;;;;;;22.16;37.75;102885.06;5071785;28;20056;-69
2023/05/30 03:44:50;;;;;;;5.00;4.65;;;;;;;21.72;38.34;102895.06;5071317;28;20051;-69
2023/05/30 03:47:15;;;;;;;5.32;4.03;;;;;;;21.71;38.27;102893.31;5069445;28;20468;-70
2023/05/30 03:49:41;;;;;;;7.05;3.75;;;;;;;21.26;39.17;102893.44;5070857;28;20035;-69
2023/05/30 03:52:06;;;;;;;4.90;4.53;;;;;;;20.14;40.60;102894.72;5068946;28;20025;-69
2023/05/30 03:54:32;;;;;;;8.18;4.32;;;;;;;21.29;39.15;102894.22;5072644;28;20025;-69
2023/05/30 03:56:57;;;;;;;6.70;4.30;;;;;;;21.32;38.81;102895.94;5070619;28;20036;-69
2023/05/30 03:59:23;;;;;;;5.22;3.70;;;;;;;21.29;39.50;102893.38;5051443;28;20045;-69
2023/05/30 04:01:48;;;;;;;5.73;4.23;;;;;;;21.21;39.05;102896.19;5052368;28;20104;-69
2023/05/30 04:04:13;;;;;;;5.57;3.70;;;;;;;21.37;39.17;102899.38;5052846;28;20028;-69
2023/05/30 04:06:39;;;;;;;6.15;4.15;;;;;;;21.65;38.83;102893.44;5070591;28;20477;-69
2023/05/30 04:09:05;;;;;;;7.00;4.78;;;;;;;22.19;37.93;102892.97;5070809;28;20059;-69
2023/05/30 04:11:31;;;;;;;7.22;4.90;;;;;;;20.91;39.84;102906.59;5070211;28;20068;-69
2023/05/30 04:13:56;;;;;;;4.93;4.63;;;;;;;21.32;39.90;102906.59;5070027;28;20468;-69
2023/05/30 04:16:21;;;;;;;5.45;4.82;;;;;;;20.61;40.58;102908.06;5071104;28;20096;-69
2023/05/30 04:18:47;;;;;;;5.22;4.10;;;;;;;19.62;42.74;102897.34;5072171;28;20058;-70
2023/05/30 04:21:13;;;;;;;5.55;5.25;;;;;;;19.46;42.79;102904.63;5051638;28;20021;-69
2023/05/30 04:23:42;;;;;;;4.50;4.10;;;;;;;20.52;40.54;102901.13;5066288;28;20082;-69
2023/05/30 04:26:09;;;;;;;4.50;4.20;;;;;;;20.73;40.26;102907.84;5061609;28;20112;-69
2023/05/30 04:28:38;;;;;;;6.65;4.05;;;;;;;20.02;41.12;102902.91;5050034;28;20035;-69
2023/05/30 04:31:05;;;;;;;6.18;4.00;;;;;;;19.15;41.99;102910.38;5051607;28;20017;-69
2023/05/30 04:33:37;;;;;;;8.18;5.00;;;;;;;19.88;41.43;102913.75;5051569;28;20031;-69
2023/05/30 04:36:08;;;;;;;4.35;4.03;;;;;;;19.99;41.20;102909.16;5048847;28;20451;-69
2023/05/30 04:38:34;;;;;;;8.95;4.50;;;;;;;20.60;39.53;102915.13;5050268;28;20477;-69
2023/05/30 04:41:03;;;;;;;4.13;3.83;;;;;;;20.51;39.59;102916.19;5050339;28;20056;-69
2023/05/30 04:43:34;;;;;;;4.20;3.90;;;;;;;19.58;41.15;102916.84;5051181;28;20397;-69
2023/05/30 04:46:00;;;;;;;5.53;4.20;;;;;;;20.74;39.27;102920.19;5049368;28;20114;-69
2023/05/30 04:48:29;;;;;;;5.22;4.40;;;;;;;20.13;40.58;102912.44;5049931;28;20116;-69
2023/05/30 04:50:56;;;;;;;4.00;3.78;;;;;;;20.36;40.29;102918.25;5049465;28;20124;-69
2023/05/30 04:53:22;;;;;;;4.38;4.05;;;;;;;19.47;41.18;102919.66;5065167;28;20028;-69
2023/05/30 04:55:47;;;;;;;9.30;3.90;;;;;;;19.94;40.80;102916.31;5068104;28;20024;-69
2023/05/30 04:58:13;;;;;;;4.95;4.40;;;;;;;20.73;39.14;102907.84;5071216;28;20477;-69
2023/05/30 05:00:40;;;;;;;4.50;4.20;;;;;;;19.41;41.51;102918.84;5070586;28;20656;-68
2023/05/30 05:03:06;;;;;;;5.05;4.55;;;;;;;20.65;39.31;102915.06;5068770;28;20043;-68
2023/05/30 05:05:32;;;;;;;5.95;5.30;;;;;;;21.19;38.18;102917.50;5051778;28;20381;-69
2023/05/30 05:07:57;;;;;;;5.43;5.03;;;;;;;20.38;39.41;102921.78;5057011;28;20040;-68
2023/05/30 05:10:23;;;;;;;4.53;4.22;;;;;;;20.03;41.02;102913.53;5067047;28;20066;-68
2023/05/30 05:12:48;;;;;;;3.85;3.60;;;;;;;20.69;39.05;102922.09;5066742;28;20024;-68
2023/05/30 05:15:13;;;;;;;5.80;5.20;;;;;;;19.93;40.43;102925.19;5050689;28;20039;-68
2023/05/30 05:17:39;;;;;;;4.50;4.10;;;;;;;19.06;42.01;102926.38;5049452;28;20043;-69
2023/05/30 05:20:06;;;;;;;4.80;4.40;;;;;;;19.50;41.82;102924.91;5049586;28;20032;-68
2023/05/30 05:22:32;;;;;;;8.20;5.03;;;;;;;19.50;41.95;102924.03;5049404;28;20025;-69
2023/05/30 05:24:57;;;;;;;6.70;5.27;;;;;;;19.47;42.22;102917.00;5057766;28;20032;-69
2023/05/30 05:27:26;;;;;;;7.90;7.10;;;;;;;19.58;41.23;102921.28;5061105;28;20032;-69
2023/05/30 05:29:51;;;;;;;6.45;5.85;;;;;;;19.24;42.12;102916.44;5054883;28;20481;-69
2023/05/30 05:32:17;;;;;;;10.88;6.57;;;;;;;20.31;39.93;102926.31;5055226;28;20032;-69
2023/05/30 05:34:42;;;;;;;6.85;6.35;;;;;;;20.80;39.40;102917.44;5048868;28;20473;-68
2023/05/30 05:37:08;;;;;;;6.82;6.20;;;;;;;20.61;38.48;102918.69;5050665;28;20060;-69
2023/05/30 05:39:34;;;;;;;7.75;7.07;;;;;;;20.57;39.34;102919.66;5049992;28;20078;-69
2023/05/30 05:42:01;;;;;;;9.48;6.57;;;;;;;20.94;38.99;102921.59;5053677;28;20440;-69
2023/05/30 05:44:27;;;;;;;8.02;7.35;;;;;;;20.57;39.43;102922.31;5065051;28;20039;-69
2023/05/30 05:46:52;;;;;;;7.85;7.35;;;;;;;19.95;40.43;102923.41;5060130;28;20019;-68
2023/05/30 05:49:18;;;;;;;8.98;8.23;;;;;;;19.77;40.89;102927.16;5060610;28;20477;-69
2023/05/30 05:51:43;;;;;;;9.27;8.68;;;;;;;21.33;37.82;102924.28;5058929;28;20029;-69
2023/05/30 05:54:08;;;;;;;8.60;7.97;;;;;;;21.52;37.71;102915.00;5070410;28;20500;-69
2023/05/30 05:56:34;;;;;;;5.70;5.35;;;;;;;21.95;37.04;102915.75;5064153;28;20491;-69
2023/05/30 05:58:59;;;;;;;5.85;5.35;;;;;;;21.91;36.47;102918.53;5061654;28;20458;-68
2023/05/30 06:01:25;;;;;;;8.25;6.97;;;;;;;20.77;38.02;102922.81;5051631;28;20547;-69
2023/05/30 06:03:50;;;;;;;6.57;6.07;;;;;;;22.02;36.42;102913.81;5062883;28;20032;-69
2023/05/30 06:06:16;;;;;;;7.00;5.78;;;;;;;21.78;37.21;102910.84;5064593;28;20021;-69
2023/05/30 06:08:44;;;;;;;8.88;8.10;;;;;;;22.06;36.34;102912.81;5049793;28;20068;-68
2023/05/30 06:11:10;;;;;;;6.20;5.45;;;;;;;21.80;36.91;102919.69;5049962;28;20031;-68
2023/05/30 06:13:35;;;;;;;5.18;4.88;;;;;;;22.80;34.95;102921.50;5047984;28;20385;-68
2023/05/30 06:16:01;;;;;;;6.93;4.75;;;;;;;22.02;36.44;102924.47;5049247;28;20025;-68
2023/05/30 06:18:26;;;;;;;5.50;5.00;;;;;;;22.23;35.65;102922.16;5065414;28;20540;-68
2023/05/30 06:20:51;;;;;;;6.68;5.72;;;;;;;21.59;37.67;102922.88;5063827;28;20095;-68
2023/05/30 06:23:17;;;;;;;8.70;5.72;;;;;;;20.54;38.17;102927.66;5065349;28;20492;-69
2023/05/30 06:25:42;;;;;;;6.55;5.35;;;;;;;22.11;36.51;102915.38;5049438;28;20071;-68
2023/05/30 06:28:07;;;;;;;5.82;5.43;;;;;;;21.45;37.52;102923.16;5064304;28;20028;-69
2023/05/30 06:30:33;;;;;;;5.80;5.40;;;;;;;20.86;38.55;102923.53;5065171;28;20021;-69
2023/05/30 06:32:58;;;;;;;9.18;6.07;;;;;;;22.51;35.81;102923.19;5064564;28;20021;-69
2023/05/30 06:35:23;;;;;;;8.18;5.82;;;;;;;20.56;38.67;102936.47;5064607;28;20029;-69
2023/05/30 06:37:49;;;;;;;6.28;5.68;;;;;;;22.15;36.06;102920.56;5047886;28;20352;-69
2023/05/30 06:40:14;;;;;;;6.78;6.38;;;;;;;23.83;33.48;102919.28;5065063;28;20113;-69
2023/05/30 06:42:40;;;;;;;6.75;6.35;;;;;;;22.31;36.25;102926.41;5048841;28;20021;-69
2023/05/30 06:45:05;;;;;;;6.88;6.20;;;;;;;23.36;34.22;102933.25;5064639;28;20029;-69
2023/05/30 06:47:31;;;;;;;8.23;5.18;;;;;;;20.81;38.17;102947.53;5049520;28;20029;-69
2023/05/30 06:49:56;;;;;;;5.55;4.95;;;;;;;21.21;38.18;102951.16;5063690;28;20033;-68
2023/05/30 06:52:21;;;;;;;6.68;5.25;;;;;;;20.27;39.08;102943.19;5064887;28;20029;-68
2023/05/30 06:54:47;;;;;;;5.10;4.72;;;;;;;22.43;36.34;102943.84;5048801;28;20025;-68
2023/05/30 06:57:12;;;;;;;6.78;6.20;;;;;;;21.97;36.05;102942.38;5064061;28;20470;-69
2023/05/30 06:59:38;;;;;;;5.88;5.55;;;;;;;23.07;35.25;102942.97;5064588;28;20183;-69
2023/05/30 07:02:03;;;;;;;7.00;5.18;;;;;;;22.29;36.43;102938.84;5063762;28;20106;-69
2023/05/30 07:04:29;;;;;;;6.50;6.03;;;;;;;21.00;37.49;102942.72;5049173;28;20036;-69
2023/05/30 07:06:55;;;;;;;7.18;5.35;;;;;;;22.34;36.13;102941.44;5048901;28;20017;-69
2023/05/30 07:09:20;;;;;;;6.22;5.82;;;;;;;22.81;35.86;102947.25;5047145;28;20435;-69
2023/05/30 07:11:46;;;;;;;4.47;4.10;;;;;;;22.61;34.89;102944.28;5047819;28;20626;-69
2023/05/30 07:14:11;;;;;;;9.05;5.15;;;;;;;21.06;36.95;102953.25;5064750;28;20028;-69
2023/05/30 07:16:37;;;;;;;7.50;6.75;;;;;;;20.15;39.80;102947.81;5063770;28;20024;-68
2023/05/30 07:19:03;;;;;;;7.10;6.70;;;;;;;20.53;39.26;102947.19;5048870;28;20540;-69
2023/05/30 07:21:29;;;;;;;8.65;7.82;;;;;;;21.27;37.44;102957.22;5049350;28;20029;-69
2023/05/30 07:23:57;;;;;;;7.65;6.00;;;;;;;21.50;37.85;102947.84;5063473;28;20040;-68
2023/05/30 07:26:22;;;;;;;6.50;6.10;;;;;;;22.64;35.79;102938.84;5064606;28;20021;-69
2023/05/30 07:28:48;;;;;;;7.38;5.70;;;;;;;23.48;34.05;102938.19;5063886;28;20031;-69
2023/05/30 07:31:13;;;;;;;6.47;5.88;;;;;;;22.06;35.65;102936.78;5047160;28;20025;-69
2023/05/30 07:33:39;;;;;;;7.63;7.10;;;;;;;22.40;34.84;102945.75;5049298;28;20477;-69
2023/05/30 07:36:04;;;;;;;9.23;7.75;;;;;;;22.78;35.54;102947.34;5063948;28;20108;-69
2023/05/30 07:38:30;;;;;;;8.52;7.72;;;;;;;22.84;34.90;102947.16;5063532;28;20023;-69
2023/05/30 07:40:55;;;;;;;9.32;8.63;;;;;;;22.51;34.86;102941.00;5064174;28;20373;-69
2023/05/30 07:43:20;;;;;;;8.80;8.20;;;;;;;22.30;35.39;102939.75;5049100;28;20039;-69
2023/05/30 07:45:46;;;;;;;7.93;7.45;;;;;;;22.30;35.78;102937.09;5047802;28;20447;-69
2023/05/30 07:48:11;;;;;;;6.50;6.10;;;;;;;23.58;33.46;102937.91;5047597;28;20540;-69
2023/05/30 07:50:37;;;;;;;9.45;8.65;;;;;;;23.57;33.05;102931.69;5048868;28;20087;-69
2023/05/30 07:53:02;;;;;;;8.55;7.95;;;;;;;24.95;31.30;102945.69;5063157;28;20120;-69
2023/05/30 07:55:28;;;;;;;10.75;10.05;;;;;;;27.12;29.21;102938.41;5064463;28;20025;-69
2023/05/30 07:57:53;;;;;;;12.05;11.10;;;;;;;29.34;25.54;102933.31;5063609;28;20029;-69
2023/05/30 08:00:19;;;;;;;10.50;9.57;;;;;;;29.85;24.90;102933.94;5047892;28;20219;-69
2023/05/30 08:02:44;;;;;;;5.03;3.47;;;;;;;29.17;24.87;102943.19;5048521;28;20025;-69
2023/05/30 08:05:10;;;;;;;4.78;3.05;;;;;;;29.87;24.87;102944.63;5064214;28;20032;-69
2023/05/30 08:07:35;;;;;;;4.03;2.25;;;;;;;30.93;23.51;102930.03;5065463;28;20110;-69
2023/05/30 08:10:01;;;;;;;1.60;1.10;;;;;;;31.70;23.06;102934.13;5051814;28;20536;-70
2023/05/30 08:12:29;;;;;;;1.88;0.80;;;;;;;30.70;22.65;102936.91;5066969;28;20036;-70
2023/05/30 08:14:56;;;;;;;4.03;0.88;;;;;;;29.59;24.31;102928.28;5067318;28;20024;-69
2023/05/30 08:17:24;;;;;;;3.15;1.17;;;;;;;30.75;23.60;102917.75;5067519;28;20017;-69
2023/05/30 08:19:52;;;;;;;2.53;0.98;;;;;;;29.23;24.47;102924.00;5066344;28;20021;-69
2023/05/30 08:22:21;;;;;;;2.65;1.08;;;;;;;30.89;23.23;102916.84;5052177;28;20021;-69
2023/05/30 08:24:50;;;;;;;4.10;1.27;;;;;;;29.84;23.25;102913.34;5051849;28;20025;-69
2023/05/30 08:27:17;;;;;;;1.33;0.90;;;;;;;29.34;24.00;102920.72;5066490;28;20095;-70
2023/05/30 08:29:44;;;;;;;2.35;1.25;;;;;;;30.08;24.41;102911.00;5051718;28;20078;-69
2023/05/30 08:32:09;;;;;;;1.13;1.00;;;;;;;30.43;24.09;102915.19;5067379;28;20021;-69
2023/05/30 08:34:36;;;;;;;1.75;1.17;;;;;;;31.06;23.85;102908.53;5066756;28;20023;-69
2023/05/30 08:37:02;;;;;;;3.17;1.35;;;;;;;30.96;22.91;102913.63;5051264;28;20025;-70
2023/05/30 08:39:27;;;;;;;1.77;1.10;;;;;;;32.47;22.00;102918.00;5067287;28;20062;-69
2023/05/30 08:41:53;;;;;;;10.40;6.60;;;;;;;31.79;21.69;102907.34;5065815;28;20481;-70
2023/05/30 08:44:19;;;;;;;2.92;2.00;;;;;;;30.05;23.16;102915.75;5067184;28;20029;-70
2023/05/30 08:46:45;;;;;;;2.10;1.90;;;;;;;30.94;21.96;102910.19;5066744;28;20048;-69
2023/05/30 08:49:18;;;;;;;1.75;1.52;;;;;;;31.85;21.29;102908.75;5066430;28;20052;-70
2023/05/30 08:51:43;;;;;;;3.30;1.60;;;;;;;29.77;22.93;102907.44;5051143;28;20104;-70
2023/05/30 08:54:36;;;;;;;1.63;1.20;;;;;;;32.42;20.96;102909.34;5067192;28;20112;-71
2023/05/30 08:57:09;;;;;;;1.52;1.40;;;;;;;30.83;22.67;102912.72;5063082;28;20056;-70
2023/05/30 08:59:35;;;;;;;4.93;2.35;;;;;;;30.77;22.97;102902.31;5051423;28;20076;-69
2023/05/30 09:02:02;;;;;;;3.10;2.15;;;;;;;32.69;21.71;102905.66;5065740;28;20213;-70
2023/05/30 09:04:29;;;;;;;3.08;1.60;;;;;;;31.51;21.57;102896.66;5066848;28;20021;-70
2023/05/30 09:06:56;;;;;;;2.75;1.70;;;;;;;31.27;22.39;102900.88;5050856;28;20078;-69
2023/05/30 09:09:23;;;;;;;1.90;1.58;;;;;;;31.48;22.74;102892.31;5050642;28;20028;-70
2023/05/30 09:11:51;;;;;;;4.05;1.42;;;;;;;32.04;21.66;102880.41;5050844;28;20035;-69
2023/05/30 09:14:16;;;;;;;6.55;1.60;;;;;;;31.51;21.46;102880.44;5051445;28;20020;-70
2023/05/30 09:16:42;;;;;;;4.15;1.65;;;;;;;29.83;23.76;102891.84;5048667;28;20377;-69
2023/05/30 09:19:07;;;;;;;2.35;1.63;;;;;;;32.47;21.58;102885.53;5066341;28;20029;-69
2023/05/30 09:21:33;;;;;;;3.35;1.50;;;;;;;32.24;21.84;102874.50;5066413;28;20040;-69
2023/05/30 09:24:04;;;;;;;1.67;1.58;;;;;;;30.20;23.09;102882.44;5065297;28;20028;-69
2023/05/30 09:26:29;;;;;;;4.63;1.92;;;;;;;31.06;23.14;102880.69;5051214;28;20031;-70
2023/05/30 09:28:55;;;;;;;3.17;1.83;;;;;;;31.94;21.92;102878.38;5065902;28;20386;-69
2023/05/30 09:31:22;;;;;;;6.47;1.95;;;;;;;32.36;20.98;102882.75;5048864;28;20070;-70
2023/05/30 09:33:51;;;;;;;3.55;1.88;;;;;;;30.85;22.75;102889.19;5065854;28;20025;-70
2023/05/30 09:36:21;;;;;;;1.65;1.48;;;;;;;32.47;21.39;102890.94;5066113;28;20038;-70
2023/05/30 09:38:53;;;;;;;1999.90;999.90;;;;;;;32.35;20.88;102889.97;5065024;28;20062;-70
2023/05/30 09:41:19;;;;;;;1999.90;999.90;;;;;;;30.80;22.78;102891.31;5065962;28;20044;-69
2023/05/30 09:43:45;;;;;;;1999.90;999.90;;;;;;;31.89;22.77;102885.06;5050069;28;20033;-69
2023/05/30 09:46:10;;;;;;;1999.90;999.90;;;;;;;28.60;24.57;102897.84;5049391;28;20063;-69
2023/05/30 09:48:39;;;;;;;1999.90;999.90;;;;;;;30.77;22.64;102881.56;5066064;28;20025;-69
2023/05/30 09:51:05;;;;;;;1999.90;999.90;;;;;;;31.18;22.77;102881.72;5049539;28;20036;-67
2023/05/30 09:53:33;;;;;;;1999.90;999.90;;;;;;;31.30;21.76;102879.06;5066260;28;20099;-70
2023/05/30 09:56:01;;;;;;;1999.90;999.90;;;;;;;31.69;22.90;102881.03;5065586;28;20127;-68
2023/05/30 09:58:26;;;;;;;1999.90;999.90;;;;;;;32.51;22.58;102880.75;5049265;28;20404;-68
2023/05/30 10:00:55;;;;;;;1999.90;999.90;;;;;;;30.35;23.33;102890.53;5065182;28;20119;-68
2023/05/30 10:03:39;;;;;;;1999.90;999.90;;;;;;;31.65;23.10;102888.47;5065685;28;20032;-68
2023/05/30 10:06:12;;;;;;;1999.90;999.90;;;;;;;31.78;21.89;102888.53;5066504;28;20039;-68
2023/05/30 10:08:39;;;;;;;1999.90;999.90;;;;;;;31.58;22.90;102879.03;5069930;28;20037;-68
2023/05/30 10:11:05;;;;;;;1999.90;999.90;;;;;;;30.38;24.14;102884.97;5069637;28;20510;-67
2023/05/30 10:13:30;;;;;;;1999.90;999.90;;;;;;;29.26;25.71;102886.19;5067198;28;20020;-68
2023/05/30 10:15:56;;;;;;;1999.90;999.90;;;;;;;30.89;23.30;102879.91;5069145;28;20036;-68
2023/05/30 10:18:23;;;;;;;1999.90;999.90;;;;;;;32.74;22.17;102881.81;5055957;28;20467;-68
2023/05/30 10:20:49;;;;;;;1999.90;999.90;;;;;;;32.19;22.37;102876.69;5047413;28;20032;-68
2023/05/30 10:23:15;;;;;;;1999.90;999.90;;;;;;;32.54;21.67;102876.00;5067726;28;20036;-68
2023/05/30 10:25:49;;;;;;;1999.90;999.90;;;;;;;32.58;22.78;102876.66;5068191;28;20020;-68
2023/05/30 10:28:20;;;;;;;1999.90;999.90;;;;;;;32.77;21.96;102881.63;5067730;28;20032;-68
2023/05/30 10:30:47;;;;;;;1999.90;999.90;;;;;;;28.56;25.96;102886.41;5068705;28;20025;-68
2023/05/30 10:33:14;;;;;;;1511.93;761.28;;;;;;;28.08;26.81;102888.06;5067874;28;20275;-68
2023/05/30 10:35:40;;;;;;;34.55;32.80;;;;;;;28.65;26.10;102894.97;5068319;28;20059;-68
2023/05/30 10:38:07;;;;;;;38.58;36.63;;;;;;;30.44;24.90;102876.50;5068118;28;20528;-68
2023/05/30 10:40:57;;;;;;;43.10;40.80;;;;;;;30.57;24.59;102869.38;5068957;28;20021;-68
2023/05/30 10:43:41;;;;;;;40.80;38.63;;;;;;;29.48;25.90;102874.13;5070276;28;20035;-68
2023/05/30 10:46:21;;;;;;;45.70;43.35;;;;;;;29.14;25.83;102881.47;5068200;28;20053;-68
2023/05/30 10:49:01;;;;;;;45.90;43.50;;;;;;;31.01;24.75;102871.97;5068591;28;20310;-68
2023/05/30 10:51:27;;;;;;;48.00;45.40;;;;;;;29.84;26.34;102875.63;5069797;28;20437;-69
2023/05/30 10:53:52;;;;;;;50.60;47.80;;;;;;;28.69;27.58;102875.88;5067859;28;20025;-69
2023/05/30 10:56:51;;;;;;;4.45;4.05;;;;;;;29.15;26.29;102875.09;5068724;28;20526;-68
2023/05/30 10:59:20;;;;;;;14.43;13.70;;;;;;;28.96;27.00;102871.72;5046424;28;20054;-69
2023/05/30 11:02:17;;;;;;;9.68;9.13;;;;;;;29.09;27.09;102872.78;5067098;28;20102;-68
2023/05/30 11:04:42;;;;;;;10.85;10.05;;;;;;;29.83;27.14;102857.69;5066755;28;20119;-68
2023/05/30 11:07:10;;;;;;;7.00;6.47;;;;;;;28.60;28.06;102874.53;5067883;28;20182;-68
2023/05/30 11:09:59;;;;;;;4.93;4.50;;;;;;;28.87;26.76;102876.66;5067619;28;20024;-68
2023/05/30 11:12:25;;;;;;;5.60;5.15;;;;;;;28.86;27.12;102861.47;5051407;28;20029;-69
2023/05/30 11:14:58;;;;;;;4.50;4.20;;;;;;;26.80;30.17;102859.44;5069072;28;20093;-68
2023/05/30 11:17:37;;;;;;;5.15;4.85;;;;;;;26.74;31.28;102866.81;5067036;28;20448;-68
2023/05/30 11:20:16;;;;;;;7.95;7.55;;;;;;;26.03;32.18;102872.66;5068882;28;20020;-68
2023/05/30 11:23:02;;;;;;;7.57;7.07;;;;;;;25.66;33.18;102867.97;5066884;28;20029;-68